sensor_id;sensor_type;location;lat;lon;timestamp;temperature;humidity
47338;DHT22;33069;51.970;5.892;2022-10-16T00:01:27;13.10;81.30
47338;DHT22;33069;51.970;5.892;2022-10-16T00:03:55;13.00;81.50
47338;DHT22;33069;51.970;5.892;2022-10-16T00:06:22;13.00;81.90
47338;DHT22;33069;51.970;5.892;2022-10-16T00:08:48;13.10;82.10
47338;DHT22;33069;51.970;5.892;2022-10-16T00:11:21;13.00;81.70
47338;DHT22;33069;51.970;5.892;2022-10-16T00:13:48;12.90;81.90
47338;DHT22;33069;51.970;5.892;2022-10-16T00:16:16;12.80;82.10
47338;DHT22;33069;51.970;5.892;2022-10-16T00:18:42;12.80;82.60
47338;DHT22;33069;51.970;5.892;2022-10-16T00:21:14;12.80;82.80
47338;DHT22;33069;51.970;5.892;2022-10-16T00:23:40;12.70;82.90
47338;DHT22;33069;51.970;5.892;2022-10-16T00:26:09;12.70;83.60
47338;DHT22;33069;51.970;5.892;2022-10-16T00:28:36;12.50;83.90
47338;DHT22;33069;51.970;5.892;2022-10-16T00:31:06;12.70;84.40
47338;DHT22;33069;51.970;5.892;2022-10-16T00:33:32;12.60;84.30
47338;DHT22;33069;51.970;5.892;2022-10-16T00:35:59;12.60;84.60
47338;DHT22;33069;51.970;5.892;2022-10-16T00:38:25;12.60;84.70
47338;DHT22;33069;51.970;5.892;2022-10-16T00:40:51;12.50;84.70
47338;DHT22;33069;51.970;5.892;2022-10-16T00:46:02;12.50;84.90
47338;DHT22;33069;51.970;5.892;2022-10-16T00:48:30;12.50;85.20
47338;DHT22;33069;51.970;5.892;2022-10-16T00:50:57;12.50;85.30
47338;DHT22;33069;51.970;5.892;2022-10-16T00:53:25;12.50;85.30
47338;DHT22;33069;51.970;5.892;2022-10-16T00:55:51;12.30;85.50
47338;DHT22;33069;51.970;5.892;2022-10-16T00:58:17;12.50;85.80
47338;DHT22;33069;51.970;5.892;2022-10-16T01:00:43;12.50;85.60
47338;DHT22;33069;51.970;5.892;2022-10-16T01:03:29;12.50;85.40
47338;DHT22;33069;51.970;5.892;2022-10-16T01:08:52;12.70;84.70
47338;DHT22;33069;51.970;5.892;2022-10-16T01:11:41;12.80;84.70
47338;DHT22;33069;51.970;5.892;2022-10-16T01:14:26;12.80;84.70
47338;DHT22;33069;51.970;5.892;2022-10-16T01:17:00;12.70;84.80
47338;DHT22;33069;51.970;5.892;2022-10-16T01:19:40;12.80;84.80
47338;DHT22;33069;51.970;5.892;2022-10-16T01:22:09;12.80;84.50
47338;DHT22;33069;51.970;5.892;2022-10-16T01:24:39;12.80;84.70
47338;DHT22;33069;51.970;5.892;2022-10-16T01:27:29;12.80;84.80
47338;DHT22;33069;51.970;5.892;2022-10-16T01:30:04;12.60;85.10
47338;DHT22;33069;51.970;5.892;2022-10-16T01:32:42;12.80;85.40
47338;DHT22;33069;51.970;5.892;2022-10-16T01:35:31;12.80;85.40
47338;DHT22;33069;51.970;5.892;2022-10-16T01:38:06;12.70;85.30
47338;DHT22;33069;51.970;5.892;2022-10-16T01:40:36;12.70;85.80
47338;DHT22;33069;51.970;5.892;2022-10-16T01:43:08;12.80;85.70
47338;DHT22;33069;51.970;5.892;2022-10-16T01:45:34;13.10;85.10
47338;DHT22;33069;51.970;5.892;2022-10-16T01:48:02;12.80;84.90
47338;DHT22;33069;51.970;5.892;2022-10-16T01:50:37;12.90;85.10
47338;DHT22;33069;51.970;5.892;2022-10-16T01:53:05;13.10;85.00
47338;DHT22;33069;51.970;5.892;2022-10-16T01:55:37;13.00;84.50
47338;DHT22;33069;51.970;5.892;2022-10-16T01:58:05;13.00;84.90
47338;DHT22;33069;51.970;5.892;2022-10-16T02:00:32;13.30;84.40
47338;DHT22;33069;51.970;5.892;2022-10-16T02:02:59;13.20;84.10
47338;DHT22;33069;51.970;5.892;2022-10-16T02:05:51;13.00;84.40
47338;DHT22;33069;51.970;5.892;2022-10-16T02:08:18;13.00;85.00
47338;DHT22;33069;51.970;5.892;2022-10-16T02:10:44;13.20;84.80
47338;DHT22;33069;51.970;5.892;2022-10-16T02:13:32;13.20;84.60
47338;DHT22;33069;51.970;5.892;2022-10-16T02:15:59;13.20;84.10
47338;DHT22;33069;51.970;5.892;2022-10-16T02:18:25;13.10;84.70
47338;DHT22;33069;51.970;5.892;2022-10-16T02:21:02;13.30;85.40
47338;DHT22;33069;51.970;5.892;2022-10-16T02:23:50;13.10;85.00
47338;DHT22;33069;51.970;5.892;2022-10-16T02:26:27;13.00;85.30
47338;DHT22;33069;51.970;5.892;2022-10-16T02:28:59;13.20;85.00
47338;DHT22;33069;51.970;5.892;2022-10-16T02:31:28;13.20;84.60
47338;DHT22;33069;51.970;5.892;2022-10-16T02:33:58;13.30;85.00
47338;DHT22;33069;51.970;5.892;2022-10-16T02:36:26;13.30;84.70
47338;DHT22;33069;51.970;5.892;2022-10-16T02:38:52;13.50;84.20
47338;DHT22;33069;51.970;5.892;2022-10-16T02:41:21;13.30;83.90
47338;DHT22;33069;51.970;5.892;2022-10-16T02:43:47;13.30;84.20
47338;DHT22;33069;51.970;5.892;2022-10-16T02:46:13;13.00;84.40
47338;DHT22;33069;51.970;5.892;2022-10-16T02:48:38;13.10;84.90
47338;DHT22;33069;51.970;5.892;2022-10-16T02:51:04;13.10;85.30
47338;DHT22;33069;51.970;5.892;2022-10-16T02:53:30;13.00;84.80
47338;DHT22;33069;51.970;5.892;2022-10-16T02:55:56;13.10;84.90
47338;DHT22;33069;51.970;5.892;2022-10-16T02:58:22;13.20;85.10
47338;DHT22;33069;51.970;5.892;2022-10-16T03:00:47;13.10;84.60
47338;DHT22;33069;51.970;5.892;2022-10-16T03:03:13;13.00;85.30
47338;DHT22;33069;51.970;5.892;2022-10-16T03:05:39;12.90;84.90
47338;DHT22;33069;51.970;5.892;2022-10-16T03:08:04;12.90;85.50
47338;DHT22;33069;51.970;5.892;2022-10-16T03:10:31;13.00;85.20
47338;DHT22;33069;51.970;5.892;2022-10-16T03:12:57;13.30;85.20
47338;DHT22;33069;51.970;5.892;2022-10-16T03:15:22;13.40;84.50
47338;DHT22;33069;51.970;5.892;2022-10-16T03:17:48;13.20;84.00
47338;DHT22;33069;51.970;5.892;2022-10-16T03:20:14;13.00;84.50
47338;DHT22;33069;51.970;5.892;2022-10-16T03:22:40;13.00;84.90
47338;DHT22;33069;51.970;5.892;2022-10-16T03:25:06;13.30;85.00
47338;DHT22;33069;51.970;5.892;2022-10-16T03:27:31;13.10;84.30
47338;DHT22;33069;51.970;5.892;2022-10-16T03:29:57;13.00;84.80
47338;DHT22;33069;51.970;5.892;2022-10-16T03:32:23;13.10;84.30
47338;DHT22;33069;51.970;5.892;2022-10-16T03:34:50;13.00;84.50
47338;DHT22;33069;51.970;5.892;2022-10-16T03:37:16;12.90;84.70
47338;DHT22;33069;51.970;5.892;2022-10-16T03:39:41;13.10;85.30
47338;DHT22;33069;51.970;5.892;2022-10-16T03:42:07;13.00;84.70
47338;DHT22;33069;51.970;5.892;2022-10-16T03:44:33;13.00;85.50
47338;DHT22;33069;51.970;5.892;2022-10-16T03:46:58;13.00;84.90
47338;DHT22;33069;51.970;5.892;2022-10-16T03:49:24;13.00;85.60
47338;DHT22;33069;51.970;5.892;2022-10-16T03:51:50;13.10;85.20
47338;DHT22;33069;51.970;5.892;2022-10-16T03:54:15;13.10;85.20
47338;DHT22;33069;51.970;5.892;2022-10-16T03:56:41;13.10;84.60
47338;DHT22;33069;51.970;5.892;2022-10-16T03:59:07;12.90;84.80
47338;DHT22;33069;51.970;5.892;2022-10-16T04:01:32;12.90;85.00
47338;DHT22;33069;51.970;5.892;2022-10-16T04:03:58;12.90;85.30
47338;DHT22;33069;51.970;5.892;2022-10-16T04:06:24;12.80;85.50
47338;DHT22;33069;51.970;5.892;2022-10-16T04:08:49;12.80;85.20
47338;DHT22;33069;51.970;5.892;2022-10-16T04:11:15;12.80;85.20
47338;DHT22;33069;51.970;5.892;2022-10-16T04:13:41;12.60;85.60
47338;DHT22;33069;51.970;5.892;2022-10-16T04:16:07;12.80;86.10
47338;DHT22;33069;51.970;5.892;2022-10-16T04:18:32;12.80;85.90
47338;DHT22;33069;51.970;5.892;2022-10-16T04:21:05;13.00;85.80
47338;DHT22;33069;51.970;5.892;2022-10-16T04:23:31;12.90;85.30
47338;DHT22;33069;51.970;5.892;2022-10-16T04:25:57;12.80;85.40
47338;DHT22;33069;51.970;5.892;2022-10-16T04:28:22;13.20;85.10
47338;DHT22;33069;51.970;5.892;2022-10-16T04:30:48;12.90;84.80
47338;DHT22;33069;51.970;5.892;2022-10-16T04:33:14;12.90;85.50
47338;DHT22;33069;51.970;5.892;2022-10-16T04:35:39;12.90;85.50
47338;DHT22;33069;51.970;5.892;2022-10-16T04:38:05;12.80;85.70
47338;DHT22;33069;51.970;5.892;2022-10-16T04:40:31;12.90;85.80
47338;DHT22;33069;51.970;5.892;2022-10-16T04:43:02;13.10;85.50
47338;DHT22;33069;51.970;5.892;2022-10-16T04:45:28;13.00;85.10
47338;DHT22;33069;51.970;5.892;2022-10-16T04:47:59;13.00;85.50
47338;DHT22;33069;51.970;5.892;2022-10-16T04:50:26;12.80;85.40
47338;DHT22;33069;51.970;5.892;2022-10-16T04:52:51;12.90;85.50
47338;DHT22;33069;51.970;5.892;2022-10-16T04:55:17;13.00;85.60
47338;DHT22;33069;51.970;5.892;2022-10-16T04:57:43;12.80;85.00
47338;DHT22;33069;51.970;5.892;2022-10-16T05:00:09;12.70;85.70
47338;DHT22;33069;51.970;5.892;2022-10-16T05:02:35;13.10;85.70
47338;DHT22;33069;51.970;5.892;2022-10-16T05:05:00;12.80;85.40
47338;DHT22;33069;51.970;5.892;2022-10-16T05:07:26;12.80;85.70
47338;DHT22;33069;51.970;5.892;2022-10-16T05:09:52;12.90;86.10
47338;DHT22;33069;51.970;5.892;2022-10-16T05:12:18;12.70;85.90
47338;DHT22;33069;51.970;5.892;2022-10-16T05:14:44;12.90;86.10
47338;DHT22;33069;51.970;5.892;2022-10-16T05:17:10;12.90;85.90
47338;DHT22;33069;51.970;5.892;2022-10-16T05:19:35;12.80;85.30
47338;DHT22;33069;51.970;5.892;2022-10-16T05:22:01;12.90;85.60
47338;DHT22;33069;51.970;5.892;2022-10-16T05:24:27;13.10;85.20
47338;DHT22;33069;51.970;5.892;2022-10-16T05:26:53;12.80;84.80
47338;DHT22;33069;51.970;5.892;2022-10-16T05:29:18;12.80;85.40
47338;DHT22;33069;51.970;5.892;2022-10-16T05:31:44;12.70;85.60
47338;DHT22;33069;51.970;5.892;2022-10-16T05:34:10;12.50;85.80
47338;DHT22;33069;51.970;5.892;2022-10-16T05:36:35;12.80;85.80
47338;DHT22;33069;51.970;5.892;2022-10-16T05:39:01;12.60;85.50
47338;DHT22;33069;51.970;5.892;2022-10-16T05:41:27;12.50;85.90
47338;DHT22;33069;51.970;5.892;2022-10-16T05:43:53;12.50;86.10
47338;DHT22;33069;51.970;5.892;2022-10-16T05:46:19;12.70;86.40
47338;DHT22;33069;51.970;5.892;2022-10-16T05:48:45;12.60;85.70
47338;DHT22;33069;51.970;5.892;2022-10-16T05:51:13;12.20;86.00
47338;DHT22;33069;51.970;5.892;2022-10-16T05:53:40;12.40;86.70
47338;DHT22;33069;51.970;5.892;2022-10-16T05:56:07;12.30;86.60
47338;DHT22;33069;51.970;5.892;2022-10-16T05:58:36;12.40;86.80
47338;DHT22;33069;51.970;5.892;2022-10-16T06:01:06;12.30;86.80
47338;DHT22;33069;51.970;5.892;2022-10-16T06:03:33;12.20;87.00
47338;DHT22;33069;51.970;5.892;2022-10-16T06:05:59;12.30;87.10
47338;DHT22;33069;51.970;5.892;2022-10-16T06:08:32;12.20;86.90
47338;DHT22;33069;51.970;5.892;2022-10-16T06:11:02;12.10;87.00
47338;DHT22;33069;51.970;5.892;2022-10-16T06:13:28;12.20;87.10
47338;DHT22;33069;51.970;5.892;2022-10-16T06:15:57;12.10;87.20
47338;DHT22;33069;51.970;5.892;2022-10-16T06:18:24;12.10;87.40
47338;DHT22;33069;51.970;5.892;2022-10-16T06:20:49;12.30;87.90
47338;DHT22;33069;51.970;5.892;2022-10-16T06:23:15;12.20;87.80
47338;DHT22;33069;51.970;5.892;2022-10-16T06:25:41;12.30;87.70
47338;DHT22;33069;51.970;5.892;2022-10-16T06:28:06;12.20;87.90
47338;DHT22;33069;51.970;5.892;2022-10-16T06:30:32;12.30;87.90
47338;DHT22;33069;51.970;5.892;2022-10-16T06:32:58;12.30;87.90
47338;DHT22;33069;51.970;5.892;2022-10-16T06:35:23;12.50;87.90
47338;DHT22;33069;51.970;5.892;2022-10-16T06:37:49;12.60;87.60
47338;DHT22;33069;51.970;5.892;2022-10-16T06:40:15;12.60;87.20
47338;DHT22;33069;51.970;5.892;2022-10-16T06:42:41;12.80;87.20
47338;DHT22;33069;51.970;5.892;2022-10-16T06:45:07;12.80;87.00
47338;DHT22;33069;51.970;5.892;2022-10-16T06:47:33;12.80;86.90
47338;DHT22;33069;51.970;5.892;2022-10-16T06:49:59;12.70;87.00
47338;DHT22;33069;51.970;5.892;2022-10-16T06:52:27;12.80;87.30
47338;DHT22;33069;51.970;5.892;2022-10-16T06:54:53;13.10;86.60
47338;DHT22;33069;51.970;5.892;2022-10-16T06:57:19;13.10;85.90
47338;DHT22;33069;51.970;5.892;2022-10-16T06:59:44;13.20;86.10
47338;DHT22;33069;51.970;5.892;2022-10-16T07:02:10;13.30;85.80
47338;DHT22;33069;51.970;5.892;2022-10-16T07:04:36;13.00;85.60
47338;DHT22;33069;51.970;5.892;2022-10-16T07:07:02;13.10;86.20
47338;DHT22;33069;51.970;5.892;2022-10-16T07:09:28;13.30;86.00
47338;DHT22;33069;51.970;5.892;2022-10-16T07:11:54;13.30;85.50
47338;DHT22;33069;51.970;5.892;2022-10-16T07:14:21;13.40;85.40
47338;DHT22;33069;51.970;5.892;2022-10-16T07:16:47;13.40;85.50
47338;DHT22;33069;51.970;5.892;2022-10-16T07:19:14;13.30;85.70
47338;DHT22;33069;51.970;5.892;2022-10-16T07:21:42;13.40;85.60
47338;DHT22;33069;51.970;5.892;2022-10-16T07:24:13;13.60;85.40
47338;DHT22;33069;51.970;5.892;2022-10-16T07:26:39;13.70;84.30
47338;DHT22;33069;51.970;5.892;2022-10-16T07:29:11;13.60;84.60
47338;DHT22;33069;51.970;5.892;2022-10-16T07:31:38;13.30;85.00
47338;DHT22;33069;51.970;5.892;2022-10-16T07:34:04;13.40;85.70
47338;DHT22;33069;51.970;5.892;2022-10-16T07:36:30;13.60;84.60
47338;DHT22;33069;51.970;5.892;2022-10-16T07:38:55;13.60;85.00
47338;DHT22;33069;51.970;5.892;2022-10-16T07:41:21;13.70;84.80
47338;DHT22;33069;51.970;5.892;2022-10-16T07:43:48;13.60;85.00
47338;DHT22;33069;51.970;5.892;2022-10-16T07:46:15;13.80;84.70
47338;DHT22;33069;51.970;5.892;2022-10-16T07:48:41;13.80;84.50
47338;DHT22;33069;51.970;5.892;2022-10-16T07:51:12;14.00;83.90
47338;DHT22;33069;51.970;5.892;2022-10-16T07:53:37;14.10;83.60
47338;DHT22;33069;51.970;5.892;2022-10-16T07:56:05;14.00;83.50
47338;DHT22;33069;51.970;5.892;2022-10-16T07:58:32;14.10;83.90
47338;DHT22;33069;51.970;5.892;2022-10-16T08:00:58;14.30;83.10
47338;DHT22;33069;51.970;5.892;2022-10-16T08:03:24;14.20;83.70
47338;DHT22;33069;51.970;5.892;2022-10-16T08:05:50;14.50;83.00
47338;DHT22;33069;51.970;5.892;2022-10-16T08:08:17;14.60;82.50
47338;DHT22;33069;51.970;5.892;2022-10-16T08:10:44;14.50;82.40
47338;DHT22;33069;51.970;5.892;2022-10-16T08:13:10;14.50;82.80
47338;DHT22;33069;51.970;5.892;2022-10-16T08:15:36;14.80;82.20
47338;DHT22;33069;51.970;5.892;2022-10-16T08:18:03;14.80;82.00
47338;DHT22;33069;51.970;5.892;2022-10-16T08:20:30;14.60;82.50
47338;DHT22;33069;51.970;5.892;2022-10-16T08:22:56;14.80;82.10
47338;DHT22;33069;51.970;5.892;2022-10-16T08:25:23;14.80;82.20
47338;DHT22;33069;51.970;5.892;2022-10-16T08:27:49;15.30;80.70
47338;DHT22;33069;51.970;5.892;2022-10-16T08:30:16;15.30;78.90
47338;DHT22;33069;51.970;5.892;2022-10-16T08:32:42;15.10;79.80
47338;DHT22;33069;51.970;5.892;2022-10-16T08:35:12;15.10;79.40
47338;DHT22;33069;51.970;5.892;2022-10-16T08:37:38;15.10;80.10
47338;DHT22;33069;51.970;5.892;2022-10-16T08:40:05;15.10;80.00
47338;DHT22;33069;51.970;5.892;2022-10-16T08:48:43;15.00;79.70
47338;DHT22;33069;51.970;5.892;2022-10-16T08:50:52;15.20;79.20
47338;DHT22;33069;51.970;5.892;2022-10-16T08:56:20;15.10;79.50
47338;DHT22;33069;51.970;5.892;2022-10-16T08:58:47;15.10;79.60
47338;DHT22;33069;51.970;5.892;2022-10-16T09:01:16;15.20;79.50
47338;DHT22;33069;51.970;5.892;2022-10-16T09:07:29;15.20;79.20
47338;DHT22;33069;51.970;5.892;2022-10-16T09:19:21;15.40;78.40
47338;DHT22;33069;51.970;5.892;2022-10-16T09:21:50;15.30;78.30
47338;DHT22;33069;51.970;5.892;2022-10-16T09:24:17;15.40;78.10
47338;DHT22;33069;51.970;5.892;2022-10-16T09:26:46;15.50;77.40
47338;DHT22;33069;51.970;5.892;2022-10-16T09:29:14;15.60;76.90
47338;DHT22;33069;51.970;5.892;2022-10-16T09:31:41;15.50;76.20
47338;DHT22;33069;51.970;5.892;2022-10-16T09:34:21;15.50;77.10
47338;DHT22;33069;51.970;5.892;2022-10-16T09:36:50;15.40;76.90
47338;DHT22;33069;51.970;5.892;2022-10-16T09:39:16;15.60;77.50
47338;DHT22;33069;51.970;5.892;2022-10-16T09:41:44;15.70;76.50
47338;DHT22;33069;51.970;5.892;2022-10-16T09:44:30;15.70;76.30
47338;DHT22;33069;51.970;5.892;2022-10-16T09:47:04;15.90;76.80
47338;DHT22;33069;51.970;5.892;2022-10-16T09:49:30;15.80;76.70
47338;DHT22;33069;51.970;5.892;2022-10-16T09:52:13;15.80;76.70
47338;DHT22;33069;51.970;5.892;2022-10-16T09:54:59;15.80;76.30
47338;DHT22;33069;51.970;5.892;2022-10-16T09:57:25;15.80;76.40
47338;DHT22;33069;51.970;5.892;2022-10-16T09:59:56;15.80;76.50
47338;DHT22;33069;51.970;5.892;2022-10-16T10:02:36;15.60;77.70
47338;DHT22;33069;51.970;5.892;2022-10-16T10:05:18;15.60;77.90
47338;DHT22;33069;51.970;5.892;2022-10-16T10:07:45;16.00;76.10
47338;DHT22;33069;51.970;5.892;2022-10-16T10:10:23;16.10;76.30
47338;DHT22;33069;51.970;5.892;2022-10-16T10:12:50;16.10;76.60
47338;DHT22;33069;51.970;5.892;2022-10-16T10:15:16;16.20;75.50
47338;DHT22;33069;51.970;5.892;2022-10-16T10:17:55;16.50;75.00
47338;DHT22;33069;51.970;5.892;2022-10-16T10:20:30;16.50;74.40
47338;DHT22;33069;51.970;5.892;2022-10-16T10:22:58;16.70;73.90
47338;DHT22;33069;51.970;5.892;2022-10-16T10:28:15;16.70;73.40
47338;DHT22;33069;51.970;5.892;2022-10-16T10:36:39;16.70;73.30
47338;DHT22;33069;51.970;5.892;2022-10-16T10:45:11;16.80;71.90
47338;DHT22;33069;51.970;5.892;2022-10-16T10:58:50;17.20;69.10
47338;DHT22;33069;51.970;5.892;2022-10-16T11:04:11;17.40;67.50
47338;DHT22;33069;51.970;5.892;2022-10-16T11:06:46;17.30;67.60
47338;DHT22;33069;51.970;5.892;2022-10-16T11:09:21;17.40;66.10
47338;DHT22;33069;51.970;5.892;2022-10-16T11:11:56;17.40;65.80
47338;DHT22;33069;51.970;5.892;2022-10-16T11:14:34;17.50;65.30
47338;DHT22;33069;51.970;5.892;2022-10-16T11:17:19;17.70;65.80
47338;DHT22;33069;51.970;5.892;2022-10-16T11:20:05;17.90;64.30
47338;DHT22;33069;51.970;5.892;2022-10-16T11:22:41;17.80;63.40
47338;DHT22;33069;51.970;5.892;2022-10-16T11:25:12;17.60;64.70
47338;DHT22;33069;51.970;5.892;2022-10-16T11:27:47;17.70;64.10
47338;DHT22;33069;51.970;5.892;2022-10-16T11:30:41;17.50;63.90
47338;DHT22;33069;51.970;5.892;2022-10-16T11:35:57;17.50;64.40
47338;DHT22;33069;51.970;5.892;2022-10-16T11:38:33;17.70;63.20
47338;DHT22;33069;51.970;5.892;2022-10-16T11:41:32;17.40;64.30
47338;DHT22;33069;51.970;5.892;2022-10-16T11:44:18;17.70;64.30
47338;DHT22;33069;51.970;5.892;2022-10-16T11:47:07;17.90;63.40
47338;DHT22;33069;51.970;5.892;2022-10-16T11:49:36;17.90;61.70
47338;DHT22;33069;51.970;5.892;2022-10-16T11:52:07;17.80;62.20
47338;DHT22;33069;51.970;5.892;2022-10-16T11:57:21;18.10;61.50
47338;DHT22;33069;51.970;5.892;2022-10-16T12:02:58;18.00;60.60
47338;DHT22;33069;51.970;5.892;2022-10-16T12:08:33;17.70;62.60
47338;DHT22;33069;51.970;5.892;2022-10-16T12:11:23;17.90;62.70
47338;DHT22;33069;51.970;5.892;2022-10-16T12:13:49;18.00;61.30
47338;DHT22;33069;51.970;5.892;2022-10-16T12:18:45;17.40;63.70
47338;DHT22;33069;51.970;5.892;2022-10-16T12:21:13;17.70;63.20
47338;DHT22;33069;51.970;5.892;2022-10-16T12:23:53;18.00;62.30
47338;DHT22;33069;51.970;5.892;2022-10-16T12:26:26;18.20;61.80
47338;DHT22;33069;51.970;5.892;2022-10-16T12:28:53;18.20;60.50
47338;DHT22;33069;51.970;5.892;2022-10-16T12:31:19;18.20;59.10
47338;DHT22;33069;51.970;5.892;2022-10-16T12:34:01;18.30;59.70
47338;DHT22;33069;51.970;5.892;2022-10-16T12:36:32;18.10;58.50
47338;DHT22;33069;51.970;5.892;2022-10-16T12:38:59;18.30;59.50
47338;DHT22;33069;51.970;5.892;2022-10-16T12:41:33;18.40;58.30
47338;DHT22;33069;51.970;5.892;2022-10-16T12:44:00;18.40;59.30
47338;DHT22;33069;51.970;5.892;2022-10-16T12:51:40;18.30;59.00
47338;DHT22;33069;51.970;5.892;2022-10-16T12:54:27;18.10;60.10
47338;DHT22;33069;51.970;5.892;2022-10-16T13:08:25;18.50;57.60
47338;DHT22;33069;51.970;5.892;2022-10-16T13:11:25;18.40;57.30
47338;DHT22;33069;51.970;5.892;2022-10-16T13:17:33;18.60;57.70
47338;DHT22;33069;51.970;5.892;2022-10-16T13:22:51;18.50;58.00
47338;DHT22;33069;51.970;5.892;2022-10-16T13:28:06;18.60;59.00
47338;DHT22;33069;51.970;5.892;2022-10-16T13:33:52;18.80;59.00
47338;DHT22;33069;51.970;5.892;2022-10-16T13:35:55;19.00;60.10
47338;DHT22;33069;51.970;5.892;2022-10-16T13:38:23;19.20;58.60
47338;DHT22;33069;51.970;5.892;2022-10-16T13:40:57;19.50;57.40
47338;DHT22;33069;51.970;5.892;2022-10-16T13:43:36;19.40;59.20
47338;DHT22;33069;51.970;5.892;2022-10-16T13:46:28;20.00;55.90
47338;DHT22;33069;51.970;5.892;2022-10-16T13:48:59;19.90;56.00
47338;DHT22;33069;51.970;5.892;2022-10-16T13:51:25;19.50;58.20
47338;DHT22;33069;51.970;5.892;2022-10-16T13:53:52;19.50;57.10
47338;DHT22;33069;51.970;5.892;2022-10-16T13:56:20;19.60;56.20
47338;DHT22;33069;51.970;5.892;2022-10-16T13:58:57;20.00;55.20
47338;DHT22;33069;51.970;5.892;2022-10-16T14:01:26;19.90;54.80
47338;DHT22;33069;51.970;5.892;2022-10-16T14:04:04;19.30;56.80
47338;DHT22;33069;51.970;5.892;2022-10-16T14:06:31;19.70;55.30
47338;DHT22;33069;51.970;5.892;2022-10-16T14:11:59;19.60;56.30
47338;DHT22;33069;51.970;5.892;2022-10-16T14:14:42;19.30;55.90
47338;DHT22;33069;51.970;5.892;2022-10-16T14:17:16;19.30;57.60
47338;DHT22;33069;51.970;5.892;2022-10-16T14:19:46;19.90;55.60
47338;DHT22;33069;51.970;5.892;2022-10-16T14:22:35;19.80;55.00
47338;DHT22;33069;51.970;5.892;2022-10-16T14:25:16;19.80;55.60
47338;DHT22;33069;51.970;5.892;2022-10-16T14:28:00;19.70;56.20
47338;DHT22;33069;51.970;5.892;2022-10-16T14:30:27;19.30;57.90
47338;DHT22;33069;51.970;5.892;2022-10-16T14:35:37;19.20;56.80
47338;DHT22;33069;51.970;5.892;2022-10-16T14:38:05;19.50;56.50
47338;DHT22;33069;51.970;5.892;2022-10-16T14:40:34;19.50;56.50
47338;DHT22;33069;51.970;5.892;2022-10-16T14:43:04;19.80;54.90
47338;DHT22;33069;51.970;5.892;2022-10-16T14:45:32;19.80;54.30
47338;DHT22;33069;51.970;5.892;2022-10-16T14:48:13;19.70;54.80
47338;DHT22;33069;51.970;5.892;2022-10-16T14:50:42;19.50;56.00
47338;DHT22;33069;51.970;5.892;2022-10-16T14:53:11;19.60;56.80
47338;DHT22;33069;51.970;5.892;2022-10-16T14:55:38;19.80;55.40
47338;DHT22;33069;51.970;5.892;2022-10-16T14:58:05;19.70;55.60
47338;DHT22;33069;51.970;5.892;2022-10-16T15:00:31;19.40;55.70
47338;DHT22;33069;51.970;5.892;2022-10-16T15:02:57;19.30;57.40
47338;DHT22;33069;51.970;5.892;2022-10-16T15:05:25;19.40;56.80
47338;DHT22;33069;51.970;5.892;2022-10-16T15:07:52;19.00;57.70
47338;DHT22;33069;51.970;5.892;2022-10-16T15:10:20;19.00;58.20
47338;DHT22;33069;51.970;5.892;2022-10-16T15:12:47;18.90;59.30
47338;DHT22;33069;51.970;5.892;2022-10-16T15:17:54;18.80;60.10
47338;DHT22;33069;51.970;5.892;2022-10-16T15:20:31;18.80;60.70
47338;DHT22;33069;51.970;5.892;2022-10-16T15:23:03;18.90;60.60
47338;DHT22;33069;51.970;5.892;2022-10-16T15:25:38;19.00;59.80
47338;DHT22;33069;51.970;5.892;2022-10-16T15:28:05;18.80;61.10
47338;DHT22;33069;51.970;5.892;2022-10-16T15:30:33;18.70;61.40
47338;DHT22;33069;51.970;5.892;2022-10-16T15:32:59;18.70;61.60
47338;DHT22;33069;51.970;5.892;2022-10-16T15:35:25;18.70;60.50
47338;DHT22;33069;51.970;5.892;2022-10-16T15:37:50;18.60;61.60
47338;DHT22;33069;51.970;5.892;2022-10-16T15:40:18;18.50;62.00
47338;DHT22;33069;51.970;5.892;2022-10-16T15:42:44;18.50;61.60
47338;DHT22;33069;51.970;5.892;2022-10-16T15:45:11;18.50;61.20
47338;DHT22;33069;51.970;5.892;2022-10-16T15:47:37;18.40;61.90
47338;DHT22;33069;51.970;5.892;2022-10-16T15:50:03;18.40;61.90
47338;DHT22;33069;51.970;5.892;2022-10-16T15:52:29;18.30;63.00
47338;DHT22;33069;51.970;5.892;2022-10-16T15:54:57;18.30;62.80
47338;DHT22;33069;51.970;5.892;2022-10-16T15:57:23;18.20;63.10
47338;DHT22;33069;51.970;5.892;2022-10-16T15:59:50;18.10;63.60
47338;DHT22;33069;51.970;5.892;2022-10-16T16:02:15;17.90;64.80
47338;DHT22;33069;51.970;5.892;2022-10-16T16:04:41;17.80;65.10
47338;DHT22;33069;51.970;5.892;2022-10-16T16:07:07;17.70;65.80
47338;DHT22;33069;51.970;5.892;2022-10-16T16:09:33;17.60;67.00
47338;DHT22;33069;51.970;5.892;2022-10-16T16:11:59;17.50;66.80
47338;DHT22;33069;51.970;5.892;2022-10-16T16:14:27;17.40;67.50
47338;DHT22;33069;51.970;5.892;2022-10-16T16:16:57;17.50;67.40
47338;DHT22;33069;51.970;5.892;2022-10-16T16:19:23;17.40;67.30
47338;DHT22;33069;51.970;5.892;2022-10-16T16:21:49;17.30;67.70
47338;DHT22;33069;51.970;5.892;2022-10-16T16:24:15;17.30;68.00
47338;DHT22;33069;51.970;5.892;2022-10-16T16:26:41;17.00;68.40
47338;DHT22;33069;51.970;5.892;2022-10-16T16:29:14;16.90;68.70
47338;DHT22;33069;51.970;5.892;2022-10-16T16:31:40;16.80;69.10
47338;DHT22;33069;51.970;5.892;2022-10-16T16:34:07;16.90;69.10
47338;DHT22;33069;51.970;5.892;2022-10-16T16:36:33;17.00;68.80
47338;DHT22;33069;51.970;5.892;2022-10-16T16:38:59;17.00;69.10
47338;DHT22;33069;51.970;5.892;2022-10-16T16:41:27;16.80;69.60
47338;DHT22;33069;51.970;5.892;2022-10-16T16:43:54;17.00;69.40
47338;DHT22;33069;51.970;5.892;2022-10-16T16:46:21;17.00;69.40
47338;DHT22;33069;51.970;5.892;2022-10-16T16:48:47;17.00;69.50
47338;DHT22;33069;51.970;5.892;2022-10-16T16:51:16;16.90;70.10
47338;DHT22;33069;51.970;5.892;2022-10-16T16:53:46;16.70;70.90
47338;DHT22;33069;51.970;5.892;2022-10-16T16:56:13;16.70;70.90
47338;DHT22;33069;51.970;5.892;2022-10-16T16:58:39;16.80;70.60
47338;DHT22;33069;51.970;5.892;2022-10-16T17:01:05;16.80;70.40
47338;DHT22;33069;51.970;5.892;2022-10-16T17:03:33;16.60;70.70
47338;DHT22;33069;51.970;5.892;2022-10-16T17:06:05;16.60;71.10
47338;DHT22;33069;51.970;5.892;2022-10-16T17:08:31;16.50;71.80
47338;DHT22;33069;51.970;5.892;2022-10-16T17:10:57;16.30;72.30
47338;DHT22;33069;51.970;5.892;2022-10-16T17:13:24;16.30;72.70
47338;DHT22;33069;51.970;5.892;2022-10-16T17:15:50;16.30;73.10
47338;DHT22;33069;51.970;5.892;2022-10-16T17:18:18;16.20;73.60
47338;DHT22;33069;51.970;5.892;2022-10-16T17:20:44;16.10;74.30
47338;DHT22;33069;51.970;5.892;2022-10-16T17:23:11;16.00;74.80
47338;DHT22;33069;51.970;5.892;2022-10-16T17:25:40;15.90;74.90
47338;DHT22;33069;51.970;5.892;2022-10-16T17:28:08;15.90;75.10
47338;DHT22;33069;51.970;5.892;2022-10-16T17:30:37;15.80;75.10